createdAt,value
2019-01-08T00:01:46.161Z,5.80
2019-01-08T00:04:14.645Z,5.70
2019-01-08T00:06:43.310Z,5.70
2019-01-08T00:09:11.839Z,5.70
2019-01-08T00:11:40.286Z,5.80
2019-01-08T00:14:08.800Z,5.80
2019-01-08T00:16:37.283Z,5.80
2019-01-08T00:19:05.827Z,5.70
2019-01-08T00:21:34.347Z,5.70
2019-01-08T00:24:02.792Z,5.60
2019-01-08T00:26:31.244Z,5.70
2019-01-08T00:28:59.761Z,5.70
2019-01-08T00:31:28.205Z,5.70
2019-01-08T00:33:56.665Z,5.70
2019-01-08T00:36:25.155Z,5.70
2019-01-08T00:38:53.766Z,5.60
2019-01-08T00:41:22.214Z,5.70
2019-01-08T00:43:50.724Z,5.60
2019-01-08T00:46:19.167Z,5.60
2019-01-08T00:48:47.625Z,5.50
2019-01-08T00:51:16.609Z,5.50
2019-01-08T00:53:45.059Z,5.40
2019-01-08T00:56:13.514Z,5.40
2019-01-08T00:58:42.034Z,5.40
2019-01-08T01:01:10.865Z,5.40
2019-01-08T01:03:39.314Z,5.30
2019-01-08T01:06:07.841Z,5.30
2019-01-08T01:08:36.359Z,5.20
2019-01-08T01:11:04.821Z,5.20
2019-01-08T01:13:33.422Z,5.20
2019-01-08T01:16:01.938Z,5.20
2019-01-08T01:18:30.391Z,5.20
2019-01-08T01:20:58.907Z,5.20
2019-01-08T01:23:27.351Z,5.20
2019-01-08T01:25:55.817Z,5.20
2019-01-08T01:28:24.380Z,5.10
2019-01-08T01:30:52.843Z,5.10
2019-01-08T01:33:21.364Z,5.10
2019-01-08T01:35:49.859Z,5.10
2019-01-08T01:38:18.306Z,5.20
2019-01-08T01:40:46.771Z,5.20
2019-01-08T01:43:15.359Z,5.20
2019-01-08T01:45:43.830Z,5.20
2019-01-08T01:48:12.346Z,5.20
2019-01-08T01:50:40.894Z,5.20
2019-01-08T01:53:09.332Z,5.20
2019-01-08T01:55:37.800Z,5.20
2019-01-08T01:58:06.305Z,5.30
2019-01-08T02:00:34.772Z,5.30
2019-01-08T02:03:03.214Z,5.30
2019-01-08T02:05:31.875Z,5.30
2019-01-08T02:08:00.336Z,5.30
2019-01-08T02:10:28.795Z,5.40
2019-01-08T02:12:57.355Z,5.40
2019-01-08T02:15:25.817Z,5.40
2019-01-08T02:17:54.344Z,5.40
2019-01-08T02:20:22.850Z,5.40
2019-01-08T02:22:51.423Z,5.40
2019-01-08T02:25:19.877Z,5.40
2019-01-08T02:27:48.459Z,5.40
2019-01-08T02:30:16.925Z,5.40
2019-01-08T02:32:45.373Z,5.40
2019-01-08T02:35:13.849Z,5.40
2019-01-08T02:37:42.421Z,5.40
2019-01-08T02:40:10.904Z,5.40
2019-01-08T02:42:39.361Z,5.40
2019-01-08T02:45:07.896Z,5.40
2019-01-08T02:47:36.348Z,5.40
2019-01-08T02:50:05.454Z,5.50
2019-01-08T02:52:33.916Z,5.40
2019-01-08T02:55:02.441Z,5.40
2019-01-08T02:57:30.888Z,5.40
2019-01-08T02:59:59.342Z,5.40
2019-01-08T03:02:27.881Z,5.40
2019-01-08T03:04:56.338Z,5.40
2019-01-08T03:07:24.786Z,5.40
2019-01-08T03:09:53.302Z,5.30
2019-01-08T03:12:21.758Z,5.30
2019-01-08T03:14:50.266Z,5.30
2019-01-08T03:17:18.758Z,5.30
2019-01-08T03:19:47.288Z,5.30
2019-01-08T03:22:15.750Z,5.30
2019-01-08T03:24:44.244Z,5.30
2019-01-08T03:27:12.692Z,5.30
2019-01-08T03:29:41.144Z,5.20
2019-01-08T03:32:09.686Z,5.20
2019-01-08T03:34:38.126Z,5.20
2019-01-08T03:37:06.756Z,5.20
2019-01-08T03:39:35.268Z,5.20
2019-01-08T03:42:03.767Z,5.20
2019-01-08T03:44:32.257Z,5.20
2019-01-08T03:47:00.876Z,5.20
2019-01-08T03:49:29.438Z,5.20
2019-01-08T03:51:57.896Z,5.20
2019-01-08T03:54:26.414Z,5.20
2019-01-08T03:56:54.873Z,5.20
2019-01-08T03:59:23.379Z,5.20
2019-01-08T04:02:11.428Z,5.20
2019-01-08T04:04:39.944Z,5.20
2019-01-08T04:07:08.398Z,5.20
2019-01-08T04:09:36.879Z,5.20
2019-01-08T04:12:05.323Z,5.20
2019-01-08T04:14:33.999Z,5.20
2019-01-08T04:17:02.628Z,5.20
2019-01-08T04:19:31.070Z,5.20
2019-01-08T04:21:59.571Z,5.20
2019-01-08T04:24:28.046Z,5.20
2019-01-08T04:26:56.521Z,5.20
2019-01-08T04:29:25.048Z,5.20
2019-01-08T04:31:53.525Z,5.20
2019-01-08T04:34:22.044Z,5.20
2019-01-08T04:36:50.644Z,5.20
2019-01-08T04:39:19.103Z,5.20
2019-01-08T04:41:47.572Z,5.20
2019-01-08T04:44:16.165Z,5.20
2019-01-08T04:46:44.640Z,5.20
2019-01-08T04:49:13.235Z,5.20
2019-01-08T04:51:41.786Z,5.20
2019-01-08T04:54:10.230Z,5.20
2019-01-08T04:56:38.716Z,5.20
2019-01-08T04:59:28.100Z,5.20
2019-01-08T05:01:56.630Z,5.20
2019-01-08T05:04:25.079Z,5.20
2019-01-08T05:06:53.604Z,5.10
2019-01-08T05:09:22.061Z,5.10
2019-01-08T05:11:50.597Z,5.10
2019-01-08T05:14:19.057Z,5.00
2019-01-08T05:16:47.503Z,5.00
2019-01-08T05:19:16.034Z,5.00
2019-01-08T05:21:44.545Z,5.00
2019-01-08T05:24:12.997Z,5.00
2019-01-08T05:26:41.583Z,5.00
2019-01-08T05:29:10.044Z,5.00
2019-01-08T05:31:38.496Z,5.00
2019-01-08T05:34:07.026Z,5.00
2019-01-08T05:36:35.743Z,5.00
2019-01-08T05:39:05.104Z,5.00
2019-01-08T05:41:33.629Z,4.90
2019-01-08T05:44:02.084Z,4.90
2019-01-08T05:46:30.900Z,4.80
2019-01-08T05:48:59.491Z,4.80
2019-01-08T05:51:28.225Z,4.70
2019-01-08T05:53:56.692Z,4.70
2019-01-08T05:56:25.281Z,4.60
2019-01-08T05:58:53.760Z,4.60
2019-01-08T06:01:22.268Z,4.60
2019-01-08T06:03:50.775Z,4.60
2019-01-08T06:06:19.434Z,4.50
2019-01-08T06:08:47.970Z,4.50
2019-01-08T06:11:16.567Z,4.50
2019-01-08T06:13:45.027Z,4.50
2019-01-08T06:16:13.471Z,4.50
2019-01-08T06:18:41.959Z,4.40
2019-01-08T06:21:10.404Z,4.40
2019-01-08T06:23:38.846Z,4.40
2019-01-08T06:26:07.373Z,4.40
2019-01-08T06:28:35.821Z,4.40
2019-01-08T06:31:04.259Z,4.40
2019-01-08T06:33:32.789Z,4.40
2019-01-08T06:36:01.262Z,4.40
2019-01-08T06:38:29.703Z,4.40
2019-01-08T06:40:58.224Z,4.40
2019-01-08T06:43:26.671Z,4.40
2019-01-08T06:45:55.116Z,4.40
2019-01-08T06:48:23.616Z,4.40
2019-01-08T06:50:56.273Z,4.50
2019-01-08T06:53:22.232Z,4.50
2019-01-08T06:55:50.917Z,4.50
2019-01-08T06:58:19.376Z,4.50
2019-01-08T07:00:47.861Z,4.60
2019-01-08T07:03:16.324Z,4.60
2019-01-08T07:05:44.851Z,4.70
2019-01-08T07:08:13.332Z,4.70
2019-01-08T07:10:41.789Z,4.80
2019-01-08T07:13:10.231Z,4.80
2019-01-08T07:15:38.865Z,4.80
2019-01-08T07:18:07.335Z,4.80
2019-01-08T07:20:35.782Z,4.80
2019-01-08T07:23:04.299Z,4.90
2019-01-08T07:25:32.738Z,4.90
2019-01-08T07:28:01.198Z,4.90
2019-01-08T07:30:29.725Z,5.00
2019-01-08T07:32:58.183Z,5.00
2019-01-08T07:35:26.639Z,5.20
2019-01-08T07:37:55.225Z,5.20
2019-01-08T07:40:23.684Z,5.10
2019-01-08T07:42:52.135Z,5.10
2019-01-08T07:45:20.659Z,5.10
2019-01-08T07:47:49.100Z,5.10
2019-01-08T07:50:17.622Z,5.10
2019-01-08T07:52:46.127Z,5.10
2019-01-08T07:55:14.649Z,5.20
2019-01-08T07:57:43.107Z,5.20
2019-01-08T08:00:11.897Z,5.20
2019-01-08T08:02:40.348Z,5.20
2019-01-08T08:05:09.023Z,5.20
2019-01-08T08:07:37.571Z,5.20
2019-01-08T08:10:07.963Z,5.20
2019-01-08T08:12:36.493Z,5.20
2019-01-08T08:15:06.278Z,5.20
2019-01-08T08:17:34.736Z,5.20
2019-01-08T08:20:03.920Z,5.20
2019-01-08T08:22:32.660Z,5.20
2019-01-08T08:25:01.117Z,5.20
2019-01-08T08:27:29.631Z,5.30
2019-01-08T08:29:58.096Z,5.30
2019-01-08T08:32:26.552Z,5.30
2019-01-08T08:34:55.137Z,5.30
2019-01-08T08:37:23.608Z,5.30
2019-01-08T08:39:52.056Z,5.30
2019-01-08T08:42:20.644Z,5.40
2019-01-08T08:44:49.153Z,5.40
2019-01-08T08:47:17.603Z,5.40
2019-01-08T08:49:46.123Z,5.40
2019-01-08T08:52:14.578Z,5.40
2019-01-08T08:54:43.017Z,5.40
2019-01-08T08:57:30.858Z,5.40
2019-01-08T08:59:59.323Z,5.40
2019-01-08T09:02:27.776Z,5.40
2019-01-08T09:04:56.240Z,5.40
2019-01-08T09:07:44.115Z,5.40
2019-01-08T09:10:12.638Z,5.50
2019-01-08T09:12:41.085Z,5.50
2019-01-08T09:15:09.671Z,5.50
2019-01-08T09:17:38.207Z,5.50
2019-01-08T09:20:09.408Z,5.40
2019-01-08T09:22:37.868Z,5.40
2019-01-08T09:25:07.327Z,5.40
2019-01-08T09:27:35.792Z,5.40
2019-01-08T09:30:06.752Z,5.40
2019-01-08T09:32:35.537Z,5.40
2019-01-08T09:35:04.451Z,5.40
2019-01-08T09:37:32.910Z,5.40
2019-01-08T09:40:01.411Z,5.40
2019-01-08T09:42:29.860Z,5.40
2019-01-08T09:44:58.308Z,5.40
2019-01-08T09:47:26.803Z,5.40
2019-01-08T09:49:55.248Z,5.40
2019-01-08T09:52:43.087Z,5.40
2019-01-08T09:55:11.537Z,5.30
2019-01-08T09:57:39.999Z,5.40
2019-01-08T10:00:09.813Z,5.30
2019-01-08T10:02:38.340Z,5.30
2019-01-08T10:05:06.919Z,5.30
2019-01-08T10:07:35.359Z,5.20
2019-01-08T10:10:04.483Z,5.20
2019-01-08T10:12:33.537Z,5.10
2019-01-08T10:15:02.054Z,5.00
2019-01-08T10:17:30.502Z,5.00
2019-01-08T10:19:58.968Z,5.00
2019-01-08T10:22:27.491Z,5.10
2019-01-08T10:24:56.102Z,5.00
2019-01-08T10:27:24.600Z,5.00
2019-01-08T10:29:53.050Z,5.00
2019-01-08T10:32:22.607Z,4.90
2019-01-08T10:34:51.066Z,4.90
2019-01-08T10:37:19.533Z,4.90
2019-01-08T10:39:47.996Z,4.90
2019-01-08T10:42:16.959Z,4.90
2019-01-08T10:44:45.416Z,4.80
2019-01-08T10:47:13.883Z,4.80
2019-01-08T10:49:42.476Z,4.80
2019-01-08T10:52:10.923Z,4.80
2019-01-08T10:54:39.383Z,4.80
2019-01-08T10:57:07.936Z,4.80
2019-01-08T10:59:36.389Z,4.80
2019-01-08T11:02:04.850Z,4.80
2019-01-08T11:04:33.675Z,4.80
2019-01-08T11:07:02.142Z,4.80
2019-01-08T11:09:30.587Z,4.70
2019-01-08T11:11:59.132Z,4.70
2019-01-08T11:14:27.663Z,4.70
2019-01-08T11:16:56.187Z,4.60
2019-01-08T11:19:24.704Z,4.50
2019-01-08T11:21:53.147Z,4.50
2019-01-08T11:24:21.604Z,4.50
2019-01-08T11:26:50.200Z,4.50
2019-01-08T11:29:18.649Z,4.40
2019-01-08T11:31:48.933Z,4.50
2019-01-08T11:34:17.320Z,4.50
2019-01-08T11:36:45.765Z,4.50
2019-01-08T11:39:14.225Z,4.50
2019-01-08T11:41:42.764Z,4.50
2019-01-08T11:44:11.215Z,4.50
2019-01-08T11:46:39.716Z,4.60
2019-01-08T11:49:08.167Z,4.60
2019-01-08T11:51:36.621Z,4.60
2019-01-08T11:54:05.143Z,4.60
2019-01-08T11:56:33.707Z,4.60
2019-01-08T11:59:02.237Z,4.60
2019-01-08T12:01:30.823Z,4.70
2019-01-08T12:03:59.293Z,4.70
2019-01-08T12:06:27.740Z,4.70
2019-01-08T12:08:56.255Z,4.70
2019-01-08T12:11:24.720Z,4.80
2019-01-08T12:13:53.813Z,4.80
2019-01-08T12:16:22.399Z,4.80
2019-01-08T12:18:51.128Z,4.90
2019-01-08T12:21:19.643Z,4.90
2019-01-08T12:23:48.234Z,4.90
2019-01-08T12:26:16.708Z,5.00
2019-01-08T12:28:45.160Z,5.00
2019-01-08T12:31:13.691Z,5.00
2019-01-08T12:33:42.152Z,5.10
2019-01-08T12:36:10.675Z,5.10
2019-01-08T12:38:40.844Z,5.20
2019-01-08T12:41:09.291Z,5.10
2019-01-08T12:43:37.811Z,5.20
2019-01-08T12:46:06.416Z,5.20
2019-01-08T12:48:35.161Z,5.20
2019-01-08T12:51:03.605Z,5.20
2019-01-08T12:53:32.202Z,5.20
2019-01-08T12:56:00.649Z,5.20
2019-01-08T12:58:29.095Z,5.20
2019-01-08T13:00:57.610Z,5.20
2019-01-08T13:03:26.060Z,5.20
2019-01-08T13:05:54.595Z,5.20
2019-01-08T13:08:23.106Z,5.20
2019-01-08T13:10:51.549Z,5.20
2019-01-08T13:13:20.004Z,5.20
2019-01-08T13:15:48.531Z,5.20
2019-01-08T13:18:16.985Z,5.20
2019-01-08T13:20:45.428Z,5.20
2019-01-08T13:23:13.959Z,5.10
2019-01-08T13:25:42.412Z,5.10
2019-01-08T13:28:10.940Z,5.10
2019-01-08T13:30:39.496Z,4.90
2019-01-08T13:33:07.991Z,4.80
2019-01-08T13:35:36.528Z,4.80
2019-01-08T13:38:04.977Z,4.80
2019-01-08T13:40:33.496Z,4.70
2019-01-08T13:43:02.022Z,4.70
2019-01-08T13:45:30.481Z,4.70
2019-01-08T13:47:59.000Z,4.70
2019-01-08T13:50:27.472Z,4.70
2019-01-08T13:52:55.924Z,4.60
2019-01-08T13:55:24.431Z,4.60
2019-01-08T13:57:52.947Z,4.60
2019-01-08T14:00:21.398Z,4.60
2019-01-08T14:02:49.923Z,4.60
2019-01-08T14:05:18.451Z,4.60
2019-01-08T14:07:46.968Z,4.50
2019-01-08T14:10:15.481Z,4.50
2019-01-08T14:12:43.951Z,4.50
2019-01-08T14:15:12.499Z,4.40
2019-01-08T14:17:41.172Z,4.40
2019-01-08T14:20:09.764Z,4.30
2019-01-08T14:22:38.274Z,4.20
2019-01-08T14:25:06.939Z,4.20
2019-01-08T14:27:35.404Z,4.20
2019-01-08T14:30:06.155Z,4.10
2019-01-08T14:32:40.607Z,4.10
2019-01-08T14:35:05.375Z,4.10
2019-01-08T14:37:34.071Z,4.10
2019-01-08T14:40:02.613Z,4.00
2019-01-08T14:42:31.135Z,4.00
2019-01-08T14:44:59.628Z,3.90
2019-01-08T14:47:28.189Z,3.90
2019-01-08T14:49:56.649Z,3.80
2019-01-08T14:52:25.205Z,3.80
2019-01-08T14:54:53.726Z,3.70
2019-01-08T14:57:22.179Z,3.70
2019-01-08T14:59:50.623Z,3.70
2019-01-08T15:02:19.135Z,3.60
2019-01-08T15:04:47.583Z,3.60
2019-01-08T15:07:16.036Z,3.60
2019-01-08T15:09:44.550Z,3.50
2019-01-08T15:12:12.995Z,3.40
2019-01-08T15:14:41.443Z,3.40
2019-01-08T15:17:09.960Z,3.40
2019-01-08T15:19:38.417Z,3.30
2019-01-08T15:22:06.947Z,3.30
2019-01-08T15:24:35.579Z,3.20
2019-01-08T15:27:04.048Z,3.10
2019-01-08T15:29:32.629Z,3.10
2019-01-08T15:32:01.097Z,3.10
2019-01-08T15:34:29.541Z,3.10
2019-01-08T15:36:58.058Z,3.00
2019-01-08T15:39:26.521Z,3.00
2019-01-08T15:41:54.985Z,3.00
2019-01-08T15:44:23.496Z,3.00
2019-01-08T15:46:52.021Z,3.00
2019-01-08T15:49:20.473Z,2.90
2019-01-08T15:51:48.955Z,2.90
2019-01-08T15:54:17.411Z,2.90
2019-01-08T15:56:45.854Z,2.90
2019-01-08T15:59:14.381Z,2.90
2019-01-08T16:01:42.838Z,2.90
2019-01-08T16:04:11.301Z,2.80
2019-01-08T16:06:39.766Z,2.80
2019-01-08T16:09:08.520Z,2.80
2019-01-08T16:11:37.115Z,2.80
2019-01-08T16:14:05.566Z,2.80
2019-01-08T16:16:34.025Z,2.80
2019-01-08T16:19:02.517Z,2.80
2019-01-08T16:21:31.101Z,2.80
2019-01-08T16:23:59.578Z,2.80
2019-01-08T16:26:28.228Z,2.80
2019-01-08T16:28:56.679Z,2.80
2019-01-08T16:31:25.135Z,2.80
2019-01-08T16:33:53.716Z,2.80
2019-01-08T16:36:22.182Z,2.80
2019-01-08T16:38:50.782Z,2.70
2019-01-08T16:41:19.441Z,2.70
2019-01-08T16:43:47.906Z,2.70
2019-01-08T16:46:16.503Z,2.60
2019-01-08T16:48:45.100Z,2.60
2019-01-08T16:51:13.546Z,2.60
2019-01-08T16:53:42.005Z,2.60
2019-01-08T16:56:10.551Z,2.60
2019-01-08T16:58:39.212Z,2.60
2019-01-08T17:01:07.675Z,2.50
2019-01-08T17:03:36.210Z,2.50
2019-01-08T17:06:04.758Z,2.50
2019-01-08T17:08:33.264Z,2.40
2019-01-08T17:11:01.787Z,2.50
2019-01-08T17:13:49.618Z,2.40
2019-01-08T17:16:18.109Z,2.40
2019-01-08T17:18:46.576Z,2.40
2019-01-08T17:21:15.167Z,2.30
2019-01-08T17:23:43.623Z,2.30
2019-01-08T17:26:12.144Z,2.30
2019-01-08T17:28:40.606Z,2.40
2019-01-08T17:31:09.113Z,2.40
2019-01-08T17:33:37.575Z,2.30
2019-01-08T17:36:06.023Z,2.40
2019-01-08T17:38:34.532Z,2.40
2019-01-08T17:41:02.997Z,2.40
2019-01-08T17:43:33.616Z,2.40
2019-01-08T17:46:01.698Z,2.40
2019-01-08T17:48:49.498Z,2.40
2019-01-08T17:51:18.020Z,2.40
2019-01-08T17:53:46.473Z,2.40
2019-01-08T17:56:14.917Z,2.40
2019-01-08T17:58:43.927Z,2.40
2019-01-08T18:01:15.635Z,2.40
2019-01-08T18:03:44.352Z,2.40
2019-01-08T18:06:12.881Z,2.40
2019-01-08T18:08:41.414Z,2.40
2019-01-08T18:11:09.928Z,2.40
2019-01-08T18:13:38.489Z,2.40
2019-01-08T18:16:07.012Z,2.50
2019-01-08T18:18:35.534Z,2.50
2019-01-08T18:21:04.127Z,2.50
2019-01-08T18:23:32.585Z,2.50
2019-01-08T18:26:01.057Z,2.50
2019-01-08T18:28:29.507Z,2.50
2019-01-08T18:30:58.037Z,2.50
2019-01-08T18:33:26.503Z,2.50
2019-01-08T18:35:55.032Z,2.60
2019-01-08T18:38:23.636Z,2.50
2019-01-08T18:40:52.228Z,2.60
2019-01-08T18:43:20.685Z,2.50
2019-01-08T18:45:49.165Z,2.50
2019-01-08T18:48:17.704Z,2.60
2019-01-08T18:50:46.229Z,2.50
2019-01-08T18:53:14.689Z,2.50
2019-01-08T18:55:45.853Z,2.50
2019-01-08T18:58:14.455Z,2.50
2019-01-08T19:00:42.949Z,2.50
2019-01-08T19:03:11.403Z,2.50
2019-01-08T19:05:39.892Z,2.50
2019-01-08T19:08:08.349Z,2.40
2019-01-08T19:10:36.793Z,2.50
2019-01-08T19:13:05.686Z,2.40
2019-01-08T19:15:34.227Z,2.40
2019-01-08T19:18:02.717Z,2.40
2019-01-08T19:20:31.440Z,2.40
2019-01-08T19:22:59.919Z,2.40
2019-01-08T19:25:28.519Z,2.30
2019-01-08T19:27:57.129Z,2.30
2019-01-08T19:30:25.749Z,2.30
2019-01-08T19:32:54.218Z,2.30
2019-01-08T19:35:22.744Z,2.30
2019-01-08T19:37:51.212Z,2.30
2019-01-08T19:40:19.804Z,2.30
2019-01-08T19:42:48.280Z,2.20
2019-01-08T19:45:16.909Z,2.20
2019-01-08T19:47:45.439Z,2.20
2019-01-08T19:50:14.472Z,2.10
2019-01-08T19:52:43.036Z,2.10
2019-01-08T19:55:11.503Z,2.10
2019-01-08T19:57:40.220Z,2.10
2019-01-08T20:00:10.792Z,2.00
2019-01-08T20:02:39.324Z,2.00
2019-01-08T20:05:08.045Z,2.00
2019-01-08T20:07:36.505Z,1.90
2019-01-08T20:10:05.578Z,1.90
2019-01-08T20:12:34.132Z,1.80
2019-01-08T20:15:02.656Z,1.80
2019-01-08T20:17:31.118Z,1.80
2019-01-08T20:19:59.743Z,1.70
2019-01-08T20:22:28.202Z,1.70
2019-01-08T20:24:56.672Z,1.70
2019-01-08T20:27:25.178Z,1.70
2019-01-08T20:29:53.636Z,1.60
2019-01-08T20:32:22.185Z,1.60
2019-01-08T20:34:50.759Z,1.50
2019-01-08T20:37:19.286Z,1.50
2019-01-08T20:39:47.734Z,1.50
2019-01-08T20:42:16.245Z,1.40
2019-01-08T20:44:44.716Z,1.40
2019-01-08T20:47:13.236Z,1.40
2019-01-08T20:49:41.770Z,1.30
2019-01-08T20:52:10.231Z,1.30
2019-01-08T20:54:39.350Z,1.30
2019-01-08T20:57:09.170Z,1.20
2019-01-08T20:59:57.549Z,1.20
2019-01-08T21:02:26.300Z,1.20
2019-01-08T21:04:54.753Z,1.20
2019-01-08T21:07:23.292Z,1.20
2019-01-08T21:09:51.908Z,1.20
2019-01-08T21:12:20.368Z,1.20
2019-01-08T21:14:49.065Z,1.30
2019-01-08T21:17:17.609Z,1.30
2019-01-08T21:19:46.066Z,1.30
2019-01-08T21:22:14.585Z,1.30
2019-01-08T21:24:43.069Z,1.30
2019-01-08T21:27:11.652Z,1.40
2019-01-08T21:29:40.249Z,1.40
2019-01-08T21:32:08.869Z,1.40
2019-01-08T21:34:44.148Z,1.40
2019-01-08T21:37:08.009Z,1.40
2019-01-08T21:39:36.557Z,1.40
2019-01-08T21:42:05.061Z,1.40
2019-01-08T21:44:33.726Z,1.30
2019-01-08T21:47:02.259Z,1.30
2019-01-08T21:49:30.783Z,1.30
2019-01-08T21:51:59.409Z,1.30
2019-01-08T21:54:28.034Z,1.30
2019-01-08T21:56:56.532Z,1.30
2019-01-08T21:59:25.237Z,1.30
2019-01-08T22:01:54.000Z,1.30
2019-01-08T22:04:22.532Z,1.30
2019-01-08T22:06:51.114Z,1.30
2019-01-08T22:09:19.571Z,1.30
2019-01-08T22:11:48.084Z,1.30
2019-01-08T22:14:16.592Z,1.30
2019-01-08T22:16:45.116Z,1.30
2019-01-08T22:19:13.575Z,1.30
2019-01-08T22:21:42.097Z,1.30
2019-01-08T22:24:10.548Z,1.30
2019-01-08T22:26:39.044Z,1.30
2019-01-08T22:29:07.613Z,1.30
2019-01-08T22:31:36.067Z,1.30
2019-01-08T22:34:04.593Z,1.30
2019-01-08T22:36:33.267Z,1.30
2019-01-08T22:39:01.724Z,1.30
2019-01-08T22:41:30.608Z,1.30
2019-01-08T22:43:59.353Z,1.30
2019-01-08T22:46:27.880Z,1.30
2019-01-08T22:48:57.400Z,1.30
2019-01-08T22:51:25.929Z,1.30
2019-01-08T22:53:54.381Z,1.40
2019-01-08T22:56:22.843Z,1.40
2019-01-08T22:58:51.625Z,1.40
2019-01-08T23:01:21.905Z,1.40
2019-01-08T23:03:50.480Z,1.40
2019-01-08T23:06:18.964Z,1.40
2019-01-08T23:08:47.407Z,1.40
2019-01-08T23:11:15.995Z,1.40
2019-01-08T23:13:44.437Z,1.30
2019-01-08T23:16:13.021Z,1.30
2019-01-08T23:18:41.876Z,1.30
2019-01-08T23:21:10.337Z,1.30
2019-01-08T23:23:38.895Z,1.30
2019-01-08T23:26:07.610Z,1.30
2019-01-08T23:28:36.135Z,1.30
2019-01-08T23:31:04.680Z,1.20
2019-01-08T23:33:33.263Z,1.20
2019-01-08T23:36:01.815Z,1.20
2019-01-08T23:38:30.288Z,1.20
2019-01-08T23:40:58.880Z,1.20
2019-01-08T23:43:27.332Z,1.20
2019-01-08T23:45:55.776Z,1.10
2019-01-08T23:48:24.290Z,1.10
2019-01-08T23:50:52.736Z,1.10
2019-01-08T23:53:27.125Z,1.10
2019-01-08T23:55:58.865Z,1.10
2019-01-08T23:58:27.456Z,1.10
